sensor_id;sensor_type;location;lat;lon;timestamp;temperature;humidity
66582;SHT31;53438;48.898;2.308;2023-05-07T03:01:46;16.67;83.45
66582;SHT31;53438;48.898;2.308;2023-05-07T03:04:12;16.63;83.17
66582;SHT31;53438;48.898;2.308;2023-05-07T03:06:37;16.61;83.54
66582;SHT31;53438;48.898;2.308;2023-05-07T03:09:02;16.66;83.56
66582;SHT31;53438;48.898;2.308;2023-05-07T03:11:28;16.71;83.69
66582;SHT31;53438;48.898;2.308;2023-05-07T03:13:53;16.80;83.53
66582;SHT31;53438;48.898;2.308;2023-05-07T03:16:18;16.81;83.19
66582;SHT31;53438;48.898;2.308;2023-05-07T03:18:44;16.87;83.07
66582;SHT31;53438;48.898;2.308;2023-05-07T03:21:09;16.91;82.92
66582;SHT31;53438;48.898;2.308;2023-05-07T03:23:34;16.84;83.18
66582;SHT31;53438;48.898;2.308;2023-05-07T03:26:00;16.79;83.72
66582;SHT31;53438;48.898;2.308;2023-05-07T03:28:25;16.79;83.63
66582;SHT31;53438;48.898;2.308;2023-05-07T03:30:50;16.84;83.56
66582;SHT31;53438;48.898;2.308;2023-05-07T03:33:16;16.79;84.19
66582;SHT31;53438;48.898;2.308;2023-05-07T03:35:41;16.30;84.62
66582;SHT31;53438;48.898;2.308;2023-05-07T03:38:07;16.34;85.39
66582;SHT31;53438;48.898;2.308;2023-05-07T03:40:32;16.29;85.13
66582;SHT31;53438;48.898;2.308;2023-05-07T03:42:59;16.34;84.28
66582;SHT31;53438;48.898;2.308;2023-05-07T03:45:25;16.42;83.88
66582;SHT31;53438;48.898;2.308;2023-05-07T03:47:50;16.50;83.76
66582;SHT31;53438;48.898;2.308;2023-05-07T03:50:16;16.60;83.37
66582;SHT31;53438;48.898;2.308;2023-05-07T03:52:41;16.64;83.04
66582;SHT31;53438;48.898;2.308;2023-05-07T03:55:07;16.70;82.87
66582;SHT31;53438;48.898;2.308;2023-05-07T03:57:32;16.70;82.55
66582;SHT31;53438;48.898;2.308;2023-05-07T03:59:58;16.67;82.51
66582;SHT31;53438;48.898;2.308;2023-05-07T04:02:23;16.59;82.61
66582;SHT31;53438;48.898;2.308;2023-05-07T04:04:49;16.53;82.51
66582;SHT31;53438;48.898;2.308;2023-05-07T04:07:14;16.50;82.41
66582;SHT31;53438;48.898;2.308;2023-05-07T04:09:40;16.56;82.13
66582;SHT31;53438;48.898;2.308;2023-05-07T04:12:05;16.48;82.36
66582;SHT31;53438;48.898;2.308;2023-05-07T04:14:31;16.53;82.58
66582;SHT31;53438;48.898;2.308;2023-05-07T04:17:00;16.57;82.28
66582;SHT31;53438;48.898;2.308;2023-05-07T04:19:25;16.63;82.46
66582;SHT31;53438;48.898;2.308;2023-05-07T04:21:51;16.53;82.83
66582;SHT31;53438;48.898;2.308;2023-05-07T04:24:16;16.48;83.32
66582;SHT31;53438;48.898;2.308;2023-05-07T04:26:41;16.42;82.98
66582;SHT31;53438;48.898;2.308;2023-05-07T04:29:07;16.43;83.43
66582;SHT31;53438;48.898;2.308;2023-05-07T04:31:32;16.53;83.07
66582;SHT31;53438;48.898;2.308;2023-05-07T04:33:57;16.48;82.99
66582;SHT31;53438;48.898;2.308;2023-05-07T04:36:23;16.56;82.75
66582;SHT31;53438;48.898;2.308;2023-05-07T04:38:52;16.55;82.41
66582;SHT31;53438;48.898;2.308;2023-05-07T04:41:18;16.56;82.68
66582;SHT31;53438;48.898;2.308;2023-05-07T04:43:43;16.16;82.43
66582;SHT31;53438;48.898;2.308;2023-05-07T04:46:08;16.13;83.62
66582;SHT31;53438;48.898;2.308;2023-05-07T04:48:34;16.05;84.31
66582;SHT31;53438;48.898;2.308;2023-05-07T04:50:59;16.04;84.60
66582;SHT31;53438;48.898;2.308;2023-05-07T04:53:25;16.15;84.10
66582;SHT31;53438;48.898;2.308;2023-05-07T04:55:55;16.26;83.78
66582;SHT31;53438;48.898;2.308;2023-05-07T04:58:22;16.32;83.55
66582;SHT31;53438;48.898;2.308;2023-05-07T05:00:47;16.36;83.39
66582;SHT31;53438;48.898;2.308;2023-05-07T05:03:13;16.34;83.36
66582;SHT31;53438;48.898;2.308;2023-05-07T05:05:38;16.29;83.57
66582;SHT31;53438;48.898;2.308;2023-05-07T05:08:03;16.29;83.81
66582;SHT31;53438;48.898;2.308;2023-05-07T05:10:29;16.28;83.74
66582;SHT31;53438;48.898;2.308;2023-05-07T05:12:54;16.28;83.57
66582;SHT31;53438;48.898;2.308;2023-05-07T05:15:19;16.32;83.51
66582;SHT31;53438;48.898;2.308;2023-05-07T05:17:45;16.23;83.77
66582;SHT31;53438;48.898;2.308;2023-05-07T05:20:10;16.19;83.86
66582;SHT31;53438;48.898;2.308;2023-05-07T05:22:37;16.26;83.63
66582;SHT31;53438;48.898;2.308;2023-05-07T05:25:02;16.20;83.75
66582;SHT31;53438;48.898;2.308;2023-05-07T05:27:28;16.26;83.43
66582;SHT31;53438;48.898;2.308;2023-05-07T05:29:54;16.26;83.12
66582;SHT31;53438;48.898;2.308;2023-05-07T05:32:19;16.30;83.06
66582;SHT31;53438;48.898;2.308;2023-05-07T05:34:44;16.32;82.98
66582;SHT31;53438;48.898;2.308;2023-05-07T05:37:10;16.30;83.28
66582;SHT31;53438;48.898;2.308;2023-05-07T05:39:36;16.34;83.22
66582;SHT31;53438;48.898;2.308;2023-05-07T05:42:01;16.40;83.03
66582;SHT31;53438;48.898;2.308;2023-05-07T05:44:26;16.40;82.97
66582;SHT31;53438;48.898;2.308;2023-05-07T05:46:52;16.43;82.97
66582;SHT31;53438;48.898;2.308;2023-05-07T05:49:20;16.48;82.89
66582;SHT31;53438;48.898;2.308;2023-05-07T05:51:45;16.50;82.83
66582;SHT31;53438;48.898;2.308;2023-05-07T05:54:11;16.52;83.05
66582;SHT31;53438;48.898;2.308;2023-05-07T05:56:36;16.34;82.89
66582;SHT31;53438;48.898;2.308;2023-05-07T05:59:02;16.33;83.92
66582;SHT31;53438;48.898;2.308;2023-05-07T06:01:27;16.42;83.53
66582;SHT31;53438;48.898;2.308;2023-05-07T06:03:53;16.50;83.29
66582;SHT31;53438;48.898;2.308;2023-05-07T06:06:18;16.39;83.06
66582;SHT31;53438;48.898;2.308;2023-05-07T06:08:43;16.40;83.20
66582;SHT31;53438;48.898;2.308;2023-05-07T06:11:09;16.43;83.11
66582;SHT31;53438;48.898;2.308;2023-05-07T06:13:34;16.46;82.95
66582;SHT31;53438;48.898;2.308;2023-05-07T06:16:00;16.42;83.04
66582;SHT31;53438;48.898;2.308;2023-05-07T06:18:25;16.36;83.06
66582;SHT31;53438;48.898;2.308;2023-05-07T06:20:51;16.39;83.14
66582;SHT31;53438;48.898;2.308;2023-05-07T06:23:17;16.43;82.92
66582;SHT31;53438;48.898;2.308;2023-05-07T06:25:48;16.39;83.04
66582;SHT31;53438;48.898;2.308;2023-05-07T06:28:13;16.33;83.00
66582;SHT31;53438;48.898;2.308;2023-05-07T06:30:38;16.34;82.78
66582;SHT31;53438;48.898;2.308;2023-05-07T06:33:05;16.33;83.13
66582;SHT31;53438;48.898;2.308;2023-05-07T06:35:30;16.39;83.37
66582;SHT31;53438;48.898;2.308;2023-05-07T06:37:56;16.42;83.35
66582;SHT31;53438;48.898;2.308;2023-05-07T06:40:21;16.39;83.03
66582;SHT31;53438;48.898;2.308;2023-05-07T06:42:46;16.50;82.90
66582;SHT31;53438;48.898;2.308;2023-05-07T06:45:12;16.52;82.77
66582;SHT31;53438;48.898;2.308;2023-05-07T06:47:37;16.42;82.27
66582;SHT31;53438;48.898;2.308;2023-05-07T06:50:02;16.25;83.37
66582;SHT31;53438;48.898;2.308;2023-05-07T06:52:28;16.30;83.18
66582;SHT31;53438;48.898;2.308;2023-05-07T06:54:53;16.36;83.02
66582;SHT31;53438;48.898;2.308;2023-05-07T06:57:18;16.40;82.87
66582;SHT31;53438;48.898;2.308;2023-05-07T06:59:44;16.50;82.88
66582;SHT31;53438;48.898;2.308;2023-05-07T07:02:09;16.50;82.95
66582;SHT31;53438;48.898;2.308;2023-05-07T07:04:34;16.56;82.75
66582;SHT31;53438;48.898;2.308;2023-05-07T07:07:00;16.64;82.71
66582;SHT31;53438;48.898;2.308;2023-05-07T07:09:25;16.38;83.21
66582;SHT31;53438;48.898;2.308;2023-05-07T07:11:50;16.49;83.05
66582;SHT31;53438;48.898;2.308;2023-05-07T07:14:16;16.59;82.89
66582;SHT31;53438;48.898;2.308;2023-05-07T07:16:41;16.60;82.54
66582;SHT31;53438;48.898;2.308;2023-05-07T07:19:06;16.67;82.58
66582;SHT31;53438;48.898;2.308;2023-05-07T07:21:32;16.50;82.61
66582;SHT31;53438;48.898;2.308;2023-05-07T07:23:57;16.49;83.30
66582;SHT31;53438;48.898;2.308;2023-05-07T07:26:22;16.49;83.39
66582;SHT31;53438;48.898;2.308;2023-05-07T07:28:48;16.50;83.50
66582;SHT31;53438;48.898;2.308;2023-05-07T07:31:13;16.45;83.39
66582;SHT31;53438;48.898;2.308;2023-05-07T07:33:38;16.53;83.18
66582;SHT31;53438;48.898;2.308;2023-05-07T07:36:05;16.52;82.81
66582;SHT31;53438;48.898;2.308;2023-05-07T07:38:30;16.52;83.08
66582;SHT31;53438;48.898;2.308;2023-05-07T07:40:56;16.45;82.94
66582;SHT31;53438;48.898;2.308;2023-05-07T07:43:21;16.49;82.54
66582;SHT31;53438;48.898;2.308;2023-05-07T07:45:46;16.40;83.12
66582;SHT31;53438;48.898;2.308;2023-05-07T07:48:12;16.45;83.12
66582;SHT31;53438;48.898;2.308;2023-05-07T07:50:38;16.46;83.14
66582;SHT31;53438;48.898;2.308;2023-05-07T07:53:03;16.49;83.00
66582;SHT31;53438;48.898;2.308;2023-05-07T07:55:28;16.53;82.75
66582;SHT31;53438;48.898;2.308;2023-05-07T07:57:54;16.55;82.80
66582;SHT31;53438;48.898;2.308;2023-05-07T08:00:21;16.53;83.29
66582;SHT31;53438;48.898;2.308;2023-05-07T08:02:47;16.50;83.25
66582;SHT31;53438;48.898;2.308;2023-05-07T08:05:12;16.57;83.66
66582;SHT31;53438;48.898;2.308;2023-05-07T08:07:37;16.55;83.64
66582;SHT31;53438;48.898;2.308;2023-05-07T08:10:03;16.63;83.55
66582;SHT31;53438;48.898;2.308;2023-05-07T08:12:29;16.57;83.91
66582;SHT31;53438;48.898;2.308;2023-05-07T08:14:54;16.69;83.73
66582;SHT31;53438;48.898;2.308;2023-05-07T08:17:20;16.67;83.37
66582;SHT31;53438;48.898;2.308;2023-05-07T08:19:47;16.76;83.76
66582;SHT31;53438;48.898;2.308;2023-05-07T08:22:13;16.77;83.64
66582;SHT31;53438;48.898;2.308;2023-05-07T08:24:39;16.76;83.44
66582;SHT31;53438;48.898;2.308;2023-05-07T08:27:04;16.70;83.13
66582;SHT31;53438;48.898;2.308;2023-05-07T08:29:29;16.71;83.35
66582;SHT31;53438;48.898;2.308;2023-05-07T08:31:55;16.83;82.89
66582;SHT31;53438;48.898;2.308;2023-05-07T08:34:21;16.81;81.96
66582;SHT31;53438;48.898;2.308;2023-05-07T08:36:47;16.98;82.17
66582;SHT31;53438;48.898;2.308;2023-05-07T08:39:16;17.10;81.78
66582;SHT31;53438;48.898;2.308;2023-05-07T08:41:44;17.12;81.47
66582;SHT31;53438;48.898;2.308;2023-05-07T08:44:12;17.15;81.37
66582;SHT31;53438;48.898;2.308;2023-05-07T08:46:39;17.27;81.23
66582;SHT31;53438;48.898;2.308;2023-05-07T08:49:07;17.18;81.13
66582;SHT31;53438;48.898;2.308;2023-05-07T08:51:32;17.04;82.11
66582;SHT31;53438;48.898;2.308;2023-05-07T08:53:59;17.08;82.16
66582;SHT31;53438;48.898;2.308;2023-05-07T08:56:24;16.85;82.22
66582;SHT31;53438;48.898;2.308;2023-05-07T08:58:50;16.81;82.65
66582;SHT31;53438;48.898;2.308;2023-05-07T09:01:16;16.83;83.07
66582;SHT31;53438;48.898;2.308;2023-05-07T09:03:44;16.88;83.21
66582;SHT31;53438;48.898;2.308;2023-05-07T09:06:10;16.92;83.33
66582;SHT31;53438;48.898;2.308;2023-05-07T09:08:36;16.95;83.18
66582;SHT31;53438;48.898;2.308;2023-05-07T09:11:02;16.92;82.69
66582;SHT31;53438;48.898;2.308;2023-05-07T09:13:28;16.90;83.06
66582;SHT31;53438;48.898;2.308;2023-05-07T09:15:54;16.95;83.02
66582;SHT31;53438;48.898;2.308;2023-05-07T09:18:19;17.07;83.11
66582;SHT31;53438;48.898;2.308;2023-05-07T09:20:44;17.11;82.74
66582;SHT31;53438;48.898;2.308;2023-05-07T09:23:10;17.18;82.33
66582;SHT31;53438;48.898;2.308;2023-05-07T09:25:36;17.25;81.91
66582;SHT31;53438;48.898;2.308;2023-05-07T09:28:03;17.31;81.79
66582;SHT31;53438;48.898;2.308;2023-05-07T09:30:33;17.31;80.92
66582;SHT31;53438;48.898;2.308;2023-05-07T09:32:59;17.22;81.14
66582;SHT31;53438;48.898;2.308;2023-05-07T09:35:25;17.22;81.17
66582;SHT31;53438;48.898;2.308;2023-05-07T09:37:55;17.21;81.53
66582;SHT31;53438;48.898;2.308;2023-05-07T09:40:23;17.20;81.31
66582;SHT31;53438;48.898;2.308;2023-05-07T09:42:49;17.31;81.58
66582;SHT31;53438;48.898;2.308;2023-05-07T09:45:16;17.43;81.61
66582;SHT31;53438;48.898;2.308;2023-05-07T09:47:42;17.48;81.07
66582;SHT31;53438;48.898;2.308;2023-05-07T09:50:10;17.34;80.34
66582;SHT31;53438;48.898;2.308;2023-05-07T09:52:39;17.46;80.96
66582;SHT31;53438;48.898;2.308;2023-05-07T09:55:06;17.46;80.91
66582;SHT31;53438;48.898;2.308;2023-05-07T09:57:32;17.50;80.27
66582;SHT31;53438;48.898;2.308;2023-05-07T09:59:59;17.53;79.70
66582;SHT31;53438;48.898;2.308;2023-05-07T10:02:30;17.59;79.66
66582;SHT31;53438;48.898;2.308;2023-05-07T10:04:56;17.48;78.93
66582;SHT31;53438;48.898;2.308;2023-05-07T10:07:22;17.59;79.49
66582;SHT31;53438;48.898;2.308;2023-05-07T10:09:47;17.58;79.31
66582;SHT31;53438;48.898;2.308;2023-05-07T10:12:13;17.58;78.77
66582;SHT31;53438;48.898;2.308;2023-05-07T10:14:39;17.61;78.57
66582;SHT31;53438;48.898;2.308;2023-05-07T10:17:06;17.65;78.74
66582;SHT31;53438;48.898;2.308;2023-05-07T10:19:32;17.62;78.66
66582;SHT31;53438;48.898;2.308;2023-05-07T10:22:03;17.61;79.24
66582;SHT31;53438;48.898;2.308;2023-05-07T10:24:32;17.45;78.71
66582;SHT31;53438;48.898;2.308;2023-05-07T10:27:00;17.61;78.82
66582;SHT31;53438;48.898;2.308;2023-05-07T10:32:08;17.85;78.09
66582;SHT31;53438;48.898;2.308;2023-05-07T10:34:39;17.91;78.65
66582;SHT31;53438;48.898;2.308;2023-05-07T10:37:06;18.01;78.19
66582;SHT31;53438;48.898;2.308;2023-05-07T10:39:31;18.01;77.73
66582;SHT31;53438;48.898;2.308;2023-05-07T10:42:10;17.99;78.78
66582;SHT31;53438;48.898;2.308;2023-05-07T10:44:36;17.99;78.32
66582;SHT31;53438;48.898;2.308;2023-05-07T10:47:13;17.97;78.64
66582;SHT31;53438;48.898;2.308;2023-05-07T10:52:17;18.16;77.94
66582;SHT31;53438;48.898;2.308;2023-05-07T10:54:44;18.14;78.23
66582;SHT31;53438;48.898;2.308;2023-05-07T10:57:35;18.23;78.49
66582;SHT31;53438;48.898;2.308;2023-05-07T11:00:04;18.11;79.17
66582;SHT31;53438;48.898;2.308;2023-05-07T11:05:23;18.14;79.49
66582;SHT31;53438;48.898;2.308;2023-05-07T11:07:56;18.28;78.84
66582;SHT31;53438;48.898;2.308;2023-05-07T11:10:22;18.36;78.39
66582;SHT31;53438;48.898;2.308;2023-05-07T11:12:49;18.23;78.09
66582;SHT31;53438;48.898;2.308;2023-05-07T11:15:33;18.23;78.13
66582;SHT31;53438;48.898;2.308;2023-05-07T11:18:02;18.21;78.49
66582;SHT31;53438;48.898;2.308;2023-05-07T11:20:54;18.26;78.26
66582;SHT31;53438;48.898;2.308;2023-05-07T11:26:05;18.18;79.88
66582;SHT31;53438;48.898;2.308;2023-05-07T11:28:35;18.17;79.46
66582;SHT31;53438;48.898;2.308;2023-05-07T11:31:02;18.18;79.53
66582;SHT31;53438;48.898;2.308;2023-05-07T11:33:28;18.16;79.15
66582;SHT31;53438;48.898;2.308;2023-05-07T11:35:54;18.20;81.37
66582;SHT31;53438;48.898;2.308;2023-05-07T11:38:19;18.28;79.55
66582;SHT31;53438;48.898;2.308;2023-05-07T11:40:52;18.36;79.89
66582;SHT31;53438;48.898;2.308;2023-05-07T11:43:18;18.48;78.46
66582;SHT31;53438;48.898;2.308;2023-05-07T11:45:44;18.68;77.24
66582;SHT31;53438;48.898;2.308;2023-05-07T11:48:12;18.57;77.58
66582;SHT31;53438;48.898;2.308;2023-05-07T11:53:28;18.84;76.79
66582;SHT31;53438;48.898;2.308;2023-05-07T11:55:55;18.72;77.23
66582;SHT31;53438;48.898;2.308;2023-05-07T11:58:22;18.55;78.27
66582;SHT31;53438;48.898;2.308;2023-05-07T12:00:49;18.45;79.65
66582;SHT31;53438;48.898;2.308;2023-05-07T12:03:14;18.36;80.48
66582;SHT31;53438;48.898;2.308;2023-05-07T12:05:40;18.26;81.54
66582;SHT31;53438;48.898;2.308;2023-05-07T12:08:07;18.33;83.16
66582;SHT31;53438;48.898;2.308;2023-05-07T12:10:32;18.44;82.77
66582;SHT31;53438;48.898;2.308;2023-05-07T12:12:57;18.38;81.82
66582;SHT31;53438;48.898;2.308;2023-05-07T12:15:23;18.51;81.36
66582;SHT31;53438;48.898;2.308;2023-05-07T12:17:48;18.51;81.03
66582;SHT31;53438;48.898;2.308;2023-05-07T12:20:14;18.44;81.76
66582;SHT31;53438;48.898;2.308;2023-05-07T12:22:40;18.28;81.59
66582;SHT31;53438;48.898;2.308;2023-05-07T12:25:06;18.27;83.03
66582;SHT31;53438;48.898;2.308;2023-05-07T12:27:32;18.38;83.22
66582;SHT31;53438;48.898;2.308;2023-05-07T12:29:58;18.62;81.86
66582;SHT31;53438;48.898;2.308;2023-05-07T12:32:24;18.33;81.44
66582;SHT31;53438;48.898;2.308;2023-05-07T12:34:50;18.34;82.72
66582;SHT31;53438;48.898;2.308;2023-05-07T12:37:16;18.30;82.89
66582;SHT31;53438;48.898;2.308;2023-05-07T12:39:47;18.27;82.55
66582;SHT31;53438;48.898;2.308;2023-05-07T12:42:19;18.20;82.00
66582;SHT31;53438;48.898;2.308;2023-05-07T12:44:48;18.13;82.21
66582;SHT31;53438;48.898;2.308;2023-05-07T12:47:14;18.17;82.30
66582;SHT31;53438;48.898;2.308;2023-05-07T12:49:40;18.16;82.51
66582;SHT31;53438;48.898;2.308;2023-05-07T12:52:06;18.21;82.58
66582;SHT31;53438;48.898;2.308;2023-05-07T12:54:33;18.34;82.02
66582;SHT31;53438;48.898;2.308;2023-05-07T12:57:09;18.21;81.06
66582;SHT31;53438;48.898;2.308;2023-05-07T12:59:40;18.28;84.69
66582;SHT31;53438;48.898;2.308;2023-05-07T13:02:07;18.38;82.78
66582;SHT31;53438;48.898;2.308;2023-05-07T13:04:32;18.36;83.25
66582;SHT31;53438;48.898;2.308;2023-05-07T13:06:59;18.33;82.90
66582;SHT31;53438;48.898;2.308;2023-05-07T13:09:24;18.33;82.79
66582;SHT31;53438;48.898;2.308;2023-05-07T13:11:50;18.27;84.09
66582;SHT31;53438;48.898;2.308;2023-05-07T13:14:15;18.18;80.73
66582;SHT31;53438;48.898;2.308;2023-05-07T13:16:41;18.24;82.51
66582;SHT31;53438;48.898;2.308;2023-05-07T13:19:06;18.26;81.77
66582;SHT31;53438;48.898;2.308;2023-05-07T13:21:33;18.37;83.56
66582;SHT31;53438;48.898;2.308;2023-05-07T13:23:59;18.24;80.85
66582;SHT31;53438;48.898;2.308;2023-05-07T13:26:25;17.96;81.05
66582;SHT31;53438;48.898;2.308;2023-05-07T13:28:51;17.75;82.63
66582;SHT31;53438;48.898;2.308;2023-05-07T13:31:17;17.42;82.63
66582;SHT31;53438;48.898;2.308;2023-05-07T13:33:42;17.55;84.29
66582;SHT31;53438;48.898;2.308;2023-05-07T13:36:07;17.43;84.42
66582;SHT31;53438;48.898;2.308;2023-05-07T13:38:33;17.35;84.41
66582;SHT31;53438;48.898;2.308;2023-05-07T13:40:59;17.25;84.40
66582;SHT31;53438;48.898;2.308;2023-05-07T13:43:24;17.24;85.11
66582;SHT31;53438;48.898;2.308;2023-05-07T13:45:50;17.20;85.29
66582;SHT31;53438;48.898;2.308;2023-05-07T13:48:15;17.38;85.67
66582;SHT31;53438;48.898;2.308;2023-05-07T13:50:40;17.50;85.91
66582;SHT31;53438;48.898;2.308;2023-05-07T13:53:07;17.41;85.68
66582;SHT31;53438;48.898;2.308;2023-05-07T13:55:32;17.29;85.49
66582;SHT31;53438;48.898;2.308;2023-05-07T13:58:00;17.52;86.03
66582;SHT31;53438;48.898;2.308;2023-05-07T14:00:27;17.68;86.51
66582;SHT31;53438;48.898;2.308;2023-05-07T14:02:52;17.75;86.28
66582;SHT31;53438;48.898;2.308;2023-05-07T14:05:18;17.75;85.45
66582;SHT31;53438;48.898;2.308;2023-05-07T14:07:43;17.72;85.37
66582;SHT31;53438;48.898;2.308;2023-05-07T14:10:09;17.83;86.42
66582;SHT31;53438;48.898;2.308;2023-05-07T14:12:36;17.91;86.71
66582;SHT31;53438;48.898;2.308;2023-05-07T14:15:01;18.00;86.27
66582;SHT31;53438;48.898;2.308;2023-05-07T14:17:28;17.80;86.24
66582;SHT31;53438;48.898;2.308;2023-05-07T14:19:54;17.82;86.17
66582;SHT31;53438;48.898;2.308;2023-05-07T14:22:20;18.14;86.98
66582;SHT31;53438;48.898;2.308;2023-05-07T14:24:46;18.16;85.14
66582;SHT31;53438;48.898;2.308;2023-05-07T14:27:11;18.40;85.88
66582;SHT31;53438;48.898;2.308;2023-05-07T14:29:37;18.47;83.93
66582;SHT31;53438;48.898;2.308;2023-05-07T14:32:02;18.58;83.87
66582;SHT31;53438;48.898;2.308;2023-05-07T14:34:28;18.92;82.99
66582;SHT31;53438;48.898;2.308;2023-05-07T14:36:54;19.08;82.67
66582;SHT31;53438;48.898;2.308;2023-05-07T14:39:20;19.00;82.20
66582;SHT31;53438;48.898;2.308;2023-05-07T14:41:46;19.10;82.30
66582;SHT31;53438;48.898;2.308;2023-05-07T14:44:11;19.31;82.36
66582;SHT31;53438;48.898;2.308;2023-05-07T14:46:36;19.20;82.81
66582;SHT31;53438;48.898;2.308;2023-05-07T14:49:02;19.05;81.40
66582;SHT31;53438;48.898;2.308;2023-05-07T14:51:27;19.02;82.00
66582;SHT31;53438;48.898;2.308;2023-05-07T14:53:53;19.02;81.98
66582;SHT31;53438;48.898;2.308;2023-05-07T14:56:19;18.89;82.21
66582;SHT31;53438;48.898;2.308;2023-05-07T14:58:46;18.43;82.53
66582;SHT31;53438;48.898;2.308;2023-05-07T15:01:13;18.24;82.29
66582;SHT31;53438;48.898;2.308;2023-05-07T15:06:04;17.70;79.86
66582;SHT31;53438;48.898;2.308;2023-05-07T15:08:30;17.55;81.37
66582;SHT31;53438;48.898;2.308;2023-05-07T15:10:55;17.17;83.55
66582;SHT31;53438;48.898;2.308;2023-05-07T15:13:21;17.20;85.27
66582;SHT31;53438;48.898;2.308;2023-05-07T15:15:46;17.29;84.83
66582;SHT31;53438;48.898;2.308;2023-05-07T15:18:12;17.34;83.22
66582;SHT31;53438;48.898;2.308;2023-05-07T15:20:37;17.49;84.66
66582;SHT31;53438;48.898;2.308;2023-05-07T15:23:03;17.53;83.18
66582;SHT31;53438;48.898;2.308;2023-05-07T15:25:30;17.24;83.38
66582;SHT31;53438;48.898;2.308;2023-05-07T15:27:58;17.25;83.37
66582;SHT31;53438;48.898;2.308;2023-05-07T15:30:23;17.28;84.42
66582;SHT31;53438;48.898;2.308;2023-05-07T15:32:48;17.39;84.05
66582;SHT31;53438;48.898;2.308;2023-05-07T15:35:14;17.50;83.71
66582;SHT31;53438;48.898;2.308;2023-05-07T15:37:39;17.41;83.85
66582;SHT31;53438;48.898;2.308;2023-05-07T15:40:05;17.04;83.51
66582;SHT31;53438;48.898;2.308;2023-05-07T15:42:32;17.27;83.68
66582;SHT31;53438;48.898;2.308;2023-05-07T15:44:58;17.50;84.00
66582;SHT31;53438;48.898;2.308;2023-05-07T15:47:25;17.49;83.17
66582;SHT31;53438;48.898;2.308;2023-05-07T15:49:50;17.49;83.20
66582;SHT31;53438;48.898;2.308;2023-05-07T15:52:17;17.39;83.09
66582;SHT31;53438;48.898;2.308;2023-05-07T15:54:42;17.61;83.00
66582;SHT31;53438;48.898;2.308;2023-05-07T15:57:07;17.79;82.44
66582;SHT31;53438;48.898;2.308;2023-05-07T15:59:34;17.61;82.61
66582;SHT31;53438;48.898;2.308;2023-05-07T16:02:00;18.03;82.72
66582;SHT31;53438;48.898;2.308;2023-05-07T16:04:25;18.00;82.47
66582;SHT31;53438;48.898;2.308;2023-05-07T16:06:52;18.00;82.96
66582;SHT31;53438;48.898;2.308;2023-05-07T16:09:19;17.89;83.02
66582;SHT31;53438;48.898;2.308;2023-05-07T16:11:45;17.85;82.62
66582;SHT31;53438;48.898;2.308;2023-05-07T16:14:10;17.75;80.83
66582;SHT31;53438;48.898;2.308;2023-05-07T16:16:36;17.96;81.40
66582;SHT31;53438;48.898;2.308;2023-05-07T16:19:03;17.89;81.44
66582;SHT31;53438;48.898;2.308;2023-05-07T16:21:28;17.91;82.65
66582;SHT31;53438;48.898;2.308;2023-05-07T16:23:55;17.83;82.25
66582;SHT31;53438;48.898;2.308;2023-05-07T16:26:20;17.83;82.95
66582;SHT31;53438;48.898;2.308;2023-05-07T16:28:45;17.79;81.93
66582;SHT31;53438;48.898;2.308;2023-05-07T16:31:11;17.75;82.24
66582;SHT31;53438;48.898;2.308;2023-05-07T16:33:36;17.89;82.62
66582;SHT31;53438;48.898;2.308;2023-05-07T16:36:01;17.86;82.65
66582;SHT31;53438;48.898;2.308;2023-05-07T16:38:27;17.99;82.17
66582;SHT31;53438;48.898;2.308;2023-05-07T16:40:57;17.99;82.29
66582;SHT31;53438;48.898;2.308;2023-05-07T16:43:22;17.91;81.80
66582;SHT31;53438;48.898;2.308;2023-05-07T16:45:48;18.03;82.20
66582;SHT31;53438;48.898;2.308;2023-05-07T16:48:13;17.89;80.40
66582;SHT31;53438;48.898;2.308;2023-05-07T16:50:38;17.99;80.02
66582;SHT31;53438;48.898;2.308;2023-05-07T16:53:04;17.79;79.76
66582;SHT31;53438;48.898;2.308;2023-05-07T16:55:31;17.75;79.66
66582;SHT31;53438;48.898;2.308;2023-05-07T16:58:02;17.69;79.26
66582;SHT31;53438;48.898;2.308;2023-05-07T17:00:28;17.85;79.29
66582;SHT31;53438;48.898;2.308;2023-05-07T17:02:53;17.91;80.37
66582;SHT31;53438;48.898;2.308;2023-05-07T17:05:18;17.83;79.53
66582;SHT31;53438;48.898;2.308;2023-05-07T17:07:44;17.83;79.06
66582;SHT31;53438;48.898;2.308;2023-05-07T17:10:10;17.79;78.43
66582;SHT31;53438;48.898;2.308;2023-05-07T17:12:35;17.72;78.82
66582;SHT31;53438;48.898;2.308;2023-05-07T17:15:02;17.86;79.79
66582;SHT31;53438;48.898;2.308;2023-05-07T17:17:27;18.00;79.95
66582;SHT31;53438;48.898;2.308;2023-05-07T17:19:53;17.90;79.81
66582;SHT31;53438;48.898;2.308;2023-05-07T17:22:19;17.94;80.14
66582;SHT31;53438;48.898;2.308;2023-05-07T17:24:45;17.97;81.15
66582;SHT31;53438;48.898;2.308;2023-05-07T17:27:10;18.01;81.23
66582;SHT31;53438;48.898;2.308;2023-05-07T17:29:35;17.83;80.69
66582;SHT31;53438;48.898;2.308;2023-05-07T17:32:01;17.72;80.62
66582;SHT31;53438;48.898;2.308;2023-05-07T17:34:26;17.61;80.12
66582;SHT31;53438;48.898;2.308;2023-05-07T17:36:52;17.65;80.33
66582;SHT31;53438;48.898;2.308;2023-05-07T17:39:18;17.58;80.11
66582;SHT31;53438;48.898;2.308;2023-05-07T17:41:44;17.55;80.04
66582;SHT31;53438;48.898;2.308;2023-05-07T17:44:10;17.56;81.26
66582;SHT31;53438;48.898;2.308;2023-05-07T17:46:35;17.45;81.00
66582;SHT31;53438;48.898;2.308;2023-05-07T17:49:01;17.42;81.58
66582;SHT31;53438;48.898;2.308;2023-05-07T17:51:26;17.50;82.08
66582;SHT31;53438;48.898;2.308;2023-05-07T17:53:53;17.34;82.02
66582;SHT31;53438;48.898;2.308;2023-05-07T17:56:19;17.35;82.13
66582;SHT31;53438;48.898;2.308;2023-05-07T17:58:44;17.24;82.77
66582;SHT31;53438;48.898;2.308;2023-05-07T18:01:09;17.25;83.43
66582;SHT31;53438;48.898;2.308;2023-05-07T18:03:35;17.27;83.94
66582;SHT31;53438;48.898;2.308;2023-05-07T18:06:01;17.15;84.55
66582;SHT31;53438;48.898;2.308;2023-05-07T18:08:26;17.18;84.42
66582;SHT31;53438;48.898;2.308;2023-05-07T18:10:52;17.14;84.77
66582;SHT31;53438;48.898;2.308;2023-05-07T18:13:17;17.06;85.52
66582;SHT31;53438;48.898;2.308;2023-05-07T18:15:44;17.08;85.83
66582;SHT31;53438;48.898;2.308;2023-05-07T18:18:10;17.12;85.66
66582;SHT31;53438;48.898;2.308;2023-05-07T18:20:35;17.07;86.20
66582;SHT31;53438;48.898;2.308;2023-05-07T18:23:01;17.17;86.57
66582;SHT31;53438;48.898;2.308;2023-05-07T18:25:26;17.15;86.55
66582;SHT31;53438;48.898;2.308;2023-05-07T18:27:52;17.24;86.38
66582;SHT31;53438;48.898;2.308;2023-05-07T18:30:17;17.15;86.37
66582;SHT31;53438;48.898;2.308;2023-05-07T18:32:42;17.12;86.48
66582;SHT31;53438;48.898;2.308;2023-05-07T18:35:08;17.03;86.84
66582;SHT31;53438;48.898;2.308;2023-05-07T18:37:33;17.04;86.94
66582;SHT31;53438;48.898;2.308;2023-05-07T18:39:58;17.04;87.10